sensor_id;sensor_type;location;lat;lon;timestamp;P1;durP1;ratioP1;P2;durP2;ratioP2
40503;SDS011;42292;49.048;8.374;2022-07-22T00:00:10;9.03;;;7.73;;
40503;SDS011;42292;49.048;8.374;2022-07-22T00:02:36;9.18;;;7.38;;
40503;SDS011;42292;49.048;8.374;2022-07-22T00:05:02;8.90;;;8.03;;
40503;SDS011;42292;49.048;8.374;2022-07-22T00:07:28;10.43;;;8.50;;
40503;SDS011;42292;49.048;8.374;2022-07-22T00:09:53;10.97;;;8.33;;
40503;SDS011;42292;49.048;8.374;2022-07-22T00:12:19;10.70;;;8.70;;
40503;SDS011;42292;49.048;8.374;2022-07-22T00:14:45;11.57;;;9.10;;
40503;SDS011;42292;49.048;8.374;2022-07-22T00:17:10;10.20;;;8.90;;
40503;SDS011;42292;49.048;8.374;2022-07-22T00:19:36;8.90;;;8.00;;
40503;SDS011;42292;49.048;8.374;2022-07-22T00:22:02;11.85;;;9.50;;
40503;SDS011;42292;49.048;8.374;2022-07-22T00:24:30;10.00;;;8.80;;
40503;SDS011;42292;49.048;8.374;2022-07-22T00:26:56;10.88;;;9.15;;
40503;SDS011;42292;49.048;8.374;2022-07-22T00:29:24;11.50;;;9.18;;
40503;SDS011;42292;49.048;8.374;2022-07-22T00:31:50;11.70;;;9.52;;
40503;SDS011;42292;49.048;8.374;2022-07-22T00:34:15;10.77;;;9.68;;
40503;SDS011;42292;49.048;8.374;2022-07-22T00:36:41;10.88;;;9.55;;
40503;SDS011;42292;49.048;8.374;2022-07-22T00:39:07;11.60;;;9.82;;
40503;SDS011;42292;49.048;8.374;2022-07-22T00:41:34;9.82;;;8.80;;
40503;SDS011;42292;49.048;8.374;2022-07-22T00:44:01;9.93;;;8.77;;
40503;SDS011;42292;49.048;8.374;2022-07-22T00:46:29;12.55;;;9.75;;
40503;SDS011;42292;49.048;8.374;2022-07-22T00:48:56;9.93;;;9.03;;
40503;SDS011;42292;49.048;8.374;2022-07-22T00:51:24;9.23;;;8.43;;
40503;SDS011;42292;49.048;8.374;2022-07-22T00:53:55;10.63;;;9.52;;
40503;SDS011;42292;49.048;8.374;2022-07-22T00:56:24;10.50;;;9.50;;
40503;SDS011;42292;49.048;8.374;2022-07-22T00:58:52;9.68;;;8.75;;
40503;SDS011;42292;49.048;8.374;2022-07-22T01:01:19;10.48;;;9.48;;
40503;SDS011;42292;49.048;8.374;2022-07-22T01:03:45;10.20;;;9.20;;
40503;SDS011;42292;49.048;8.374;2022-07-22T01:06:13;9.53;;;8.63;;
40503;SDS011;42292;49.048;8.374;2022-07-22T01:08:43;13.05;;;10.23;;
40503;SDS011;42292;49.048;8.374;2022-07-22T01:11:16;11.18;;;9.82;;
40503;SDS011;42292;49.048;8.374;2022-07-22T01:13:43;12.60;;;10.45;;
40503;SDS011;42292;49.048;8.374;2022-07-22T01:16:15;12.43;;;10.00;;
40503;SDS011;42292;49.048;8.374;2022-07-22T01:18:42;10.18;;;9.23;;
40503;SDS011;42292;49.048;8.374;2022-07-22T01:21:09;10.93;;;9.82;;
40503;SDS011;42292;49.048;8.374;2022-07-22T01:23:35;11.50;;;10.40;;
40503;SDS011;42292;49.048;8.374;2022-07-22T01:26:02;11.98;;;10.13;;
40503;SDS011;42292;49.048;8.374;2022-07-22T01:28:28;11.80;;;10.15;;
40503;SDS011;42292;49.048;8.374;2022-07-22T01:30:56;12.23;;;11.02;;
40503;SDS011;42292;49.048;8.374;2022-07-22T01:33:24;12.90;;;10.88;;
40503;SDS011;42292;49.048;8.374;2022-07-22T01:35:52;12.38;;;11.02;;
40503;SDS011;42292;49.048;8.374;2022-07-22T01:38:18;12.35;;;10.70;;
40503;SDS011;42292;49.048;8.374;2022-07-22T01:40:44;13.27;;;10.95;;
40503;SDS011;42292;49.048;8.374;2022-07-22T01:43:12;13.52;;;11.05;;
40503;SDS011;42292;49.048;8.374;2022-07-22T01:45:43;13.23;;;10.52;;
40503;SDS011;42292;49.048;8.374;2022-07-22T01:48:12;11.40;;;10.20;;
40503;SDS011;42292;49.048;8.374;2022-07-22T01:50:38;11.48;;;10.27;;
40503;SDS011;42292;49.048;8.374;2022-07-22T01:53:04;12.30;;;11.02;;
40503;SDS011;42292;49.048;8.374;2022-07-22T01:55:30;13.83;;;11.10;;
40503;SDS011;42292;49.048;8.374;2022-07-22T01:57:55;13.63;;;11.40;;
40503;SDS011;42292;49.048;8.374;2022-07-22T02:00:25;11.77;;;10.57;;
40503;SDS011;42292;49.048;8.374;2022-07-22T02:02:56;11.68;;;10.52;;
40503;SDS011;42292;49.048;8.374;2022-07-22T02:05:21;12.60;;;9.55;;
40503;SDS011;42292;49.048;8.374;2022-07-22T02:07:47;11.43;;;10.20;;
40503;SDS011;42292;49.048;8.374;2022-07-22T02:10:13;11.70;;;10.02;;
40503;SDS011;42292;49.048;8.374;2022-07-22T02:12:41;11.40;;;10.30;;
40503;SDS011;42292;49.048;8.374;2022-07-22T02:15:07;12.75;;;10.38;;
40503;SDS011;42292;49.048;8.374;2022-07-22T02:17:34;13.77;;;10.25;;
40503;SDS011;42292;49.048;8.374;2022-07-22T02:19:59;10.95;;;9.80;;
40503;SDS011;42292;49.048;8.374;2022-07-22T02:22:28;13.05;;;10.40;;
40503;SDS011;42292;49.048;8.374;2022-07-22T02:24:53;12.55;;;10.95;;
40503;SDS011;42292;49.048;8.374;2022-07-22T02:27:19;11.88;;;10.65;;
40503;SDS011;42292;49.048;8.374;2022-07-22T02:29:45;13.30;;;10.93;;
40503;SDS011;42292;49.048;8.374;2022-07-22T02:32:10;12.05;;;9.43;;
40503;SDS011;42292;49.048;8.374;2022-07-22T02:34:36;10.50;;;9.47;;
40503;SDS011;42292;49.048;8.374;2022-07-22T02:37:04;11.40;;;10.20;;
40503;SDS011;42292;49.048;8.374;2022-07-22T02:39:30;10.23;;;9.32;;
40503;SDS011;42292;49.048;8.374;2022-07-22T02:41:55;9.93;;;8.98;;
40503;SDS011;42292;49.048;8.374;2022-07-22T02:44:23;10.70;;;9.60;;
40503;SDS011;42292;49.048;8.374;2022-07-22T02:46:49;10.70;;;9.70;;
40503;SDS011;42292;49.048;8.374;2022-07-22T02:49:14;11.63;;;9.27;;
40503;SDS011;42292;49.048;8.374;2022-07-22T02:51:40;9.80;;;8.80;;
40503;SDS011;42292;49.048;8.374;2022-07-22T02:54:06;11.95;;;9.43;;
40503;SDS011;42292;49.048;8.374;2022-07-22T02:56:34;10.13;;;9.13;;
40503;SDS011;42292;49.048;8.374;2022-07-22T02:59:02;10.40;;;9.43;;
40503;SDS011;42292;49.048;8.374;2022-07-22T03:01:27;11.18;;;9.70;;
40503;SDS011;42292;49.048;8.374;2022-07-22T03:03:53;10.95;;;9.75;;
40503;SDS011;42292;49.048;8.374;2022-07-22T03:06:19;12.30;;;11.07;;
40503;SDS011;42292;49.048;8.374;2022-07-22T03:08:46;12.32;;;10.48;;
40503;SDS011;42292;49.048;8.374;2022-07-22T03:11:14;12.20;;;9.90;;
40503;SDS011;42292;49.048;8.374;2022-07-22T03:13:42;10.77;;;9.77;;
40503;SDS011;42292;49.048;8.374;2022-07-22T03:16:07;11.60;;;10.23;;
40503;SDS011;42292;49.048;8.374;2022-07-22T03:18:34;11.10;;;9.97;;
40503;SDS011;42292;49.048;8.374;2022-07-22T03:20:59;11.57;;;10.30;;
40503;SDS011;42292;49.048;8.374;2022-07-22T03:23:27;12.27;;;10.77;;
40503;SDS011;42292;49.048;8.374;2022-07-22T03:25:56;11.65;;;10.45;;
40503;SDS011;42292;49.048;8.374;2022-07-22T03:28:24;10.63;;;9.43;;
40503;SDS011;42292;49.048;8.374;2022-07-22T03:30:49;11.30;;;10.20;;
40503;SDS011;42292;49.048;8.374;2022-07-22T03:33:15;11.65;;;10.52;;
40503;SDS011;42292;49.048;8.374;2022-07-22T03:35:43;11.88;;;9.75;;
40503;SDS011;42292;49.048;8.374;2022-07-22T03:38:08;11.00;;;9.90;;
40503;SDS011;42292;49.048;8.374;2022-07-22T03:40:34;10.55;;;9.55;;
40503;SDS011;42292;49.048;8.374;2022-07-22T03:43:00;11.05;;;9.95;;
40503;SDS011;42292;49.048;8.374;2022-07-22T03:45:25;11.43;;;10.32;;
40503;SDS011;42292;49.048;8.374;2022-07-22T03:47:51;11.88;;;10.60;;
40503;SDS011;42292;49.048;8.374;2022-07-22T03:50:19;11.40;;;10.20;;
40503;SDS011;42292;49.048;8.374;2022-07-22T03:52:45;11.13;;;10.02;;
40503;SDS011;42292;49.048;8.374;2022-07-22T03:55:13;10.90;;;9.90;;
40503;SDS011;42292;49.048;8.374;2022-07-22T03:57:38;11.77;;;10.63;;
40503;SDS011;42292;49.048;8.374;2022-07-22T04:00:04;12.20;;;10.93;;
40503;SDS011;42292;49.048;8.374;2022-07-22T04:02:31;11.45;;;10.35;;
40503;SDS011;42292;49.048;8.374;2022-07-22T04:04:59;10.05;;;9.07;;
40503;SDS011;42292;49.048;8.374;2022-07-22T04:07:24;10.25;;;9.32;;
40503;SDS011;42292;49.048;8.374;2022-07-22T04:09:50;11.18;;;10.07;;
40503;SDS011;42292;49.048;8.374;2022-07-22T04:12:16;11.73;;;10.52;;
40503;SDS011;42292;49.048;8.374;2022-07-22T04:14:41;12.52;;;10.48;;
40503;SDS011;42292;49.048;8.374;2022-07-22T04:17:07;10.93;;;9.35;;
40503;SDS011;42292;49.048;8.374;2022-07-22T04:19:32;11.60;;;10.07;;
40503;SDS011;42292;49.048;8.374;2022-07-22T04:21:58;13.23;;;10.43;;
40503;SDS011;42292;49.048;8.374;2022-07-22T04:24:26;10.13;;;9.13;;
40503;SDS011;42292;49.048;8.374;2022-07-22T04:26:52;10.40;;;9.38;;
40503;SDS011;42292;49.048;8.374;2022-07-22T04:29:20;10.55;;;9.23;;
40503;SDS011;42292;49.048;8.374;2022-07-22T04:31:45;10.55;;;9.45;;
40503;SDS011;42292;49.048;8.374;2022-07-22T04:34:13;10.45;;;9.27;;
40503;SDS011;42292;49.048;8.374;2022-07-22T04:36:39;10.53;;;9.20;;
40503;SDS011;42292;49.048;8.374;2022-07-22T04:39:07;12.50;;;10.32;;
40503;SDS011;42292;49.048;8.374;2022-07-22T04:41:33;9.88;;;8.88;;
40503;SDS011;42292;49.048;8.374;2022-07-22T04:43:58;11.43;;;9.88;;
40503;SDS011;42292;49.048;8.374;2022-07-22T04:46:24;9.93;;;9.02;;
40503;SDS011;42292;49.048;8.374;2022-07-22T04:48:49;11.65;;;9.65;;
40503;SDS011;42292;49.048;8.374;2022-07-22T04:51:15;10.35;;;9.30;;
40503;SDS011;42292;49.048;8.374;2022-07-22T04:53:41;12.27;;;9.85;;
40503;SDS011;42292;49.048;8.374;2022-07-22T04:56:06;11.18;;;9.55;;
40503;SDS011;42292;49.048;8.374;2022-07-22T04:58:32;10.43;;;9.43;;
40503;SDS011;42292;49.048;8.374;2022-07-22T05:01:00;11.87;;;9.67;;
40503;SDS011;42292;49.048;8.374;2022-07-22T05:03:28;10.50;;;9.40;;
40503;SDS011;42292;49.048;8.374;2022-07-22T05:05:56;11.25;;;9.02;;
40503;SDS011;42292;49.048;8.374;2022-07-22T05:08:21;10.13;;;9.07;;
40503;SDS011;42292;49.048;8.374;2022-07-22T05:10:49;11.90;;;9.15;;
40503;SDS011;42292;49.048;8.374;2022-07-22T05:13:15;10.38;;;9.05;;
40503;SDS011;42292;49.048;8.374;2022-07-22T05:15:40;10.25;;;8.88;;
40503;SDS011;42292;49.048;8.374;2022-07-22T05:18:06;10.40;;;9.23;;
40503;SDS011;42292;49.048;8.374;2022-07-22T05:20:36;10.20;;;9.15;;
40503;SDS011;42292;49.048;8.374;2022-07-22T05:23:02;11.43;;;8.70;;
40503;SDS011;42292;49.048;8.374;2022-07-22T05:25:28;12.93;;;9.90;;
40503;SDS011;42292;49.048;8.374;2022-07-22T05:27:56;12.05;;;8.75;;
40503;SDS011;42292;49.048;8.374;2022-07-22T05:30:21;9.40;;;8.38;;
40503;SDS011;42292;49.048;8.374;2022-07-22T05:32:47;11.50;;;9.27;;
40503;SDS011;42292;49.048;8.374;2022-07-22T05:35:13;13.37;;;9.53;;
40503;SDS011;42292;49.048;8.374;2022-07-22T05:37:39;10.93;;;9.07;;
40503;SDS011;42292;49.048;8.374;2022-07-22T05:40:05;14.18;;;9.00;;
40503;SDS011;42292;49.048;8.374;2022-07-22T05:42:31;10.35;;;8.88;;
40503;SDS011;42292;49.048;8.374;2022-07-22T05:44:59;10.77;;;8.85;;
40503;SDS011;42292;49.048;8.374;2022-07-22T05:47:25;11.00;;;9.03;;
40503;SDS011;42292;49.048;8.374;2022-07-22T05:49:50;10.07;;;9.07;;
40503;SDS011;42292;49.048;8.374;2022-07-22T05:52:18;9.30;;;8.27;;
40503;SDS011;42292;49.048;8.374;2022-07-22T05:54:44;12.90;;;8.93;;
40503;SDS011;42292;49.048;8.374;2022-07-22T05:57:10;10.03;;;8.10;;
40503;SDS011;42292;49.048;8.374;2022-07-22T05:59:35;10.57;;;8.40;;
40503;SDS011;42292;49.048;8.374;2022-07-22T06:02:02;10.50;;;8.13;;
40503;SDS011;42292;49.048;8.374;2022-07-22T06:04:28;9.52;;;8.25;;
40503;SDS011;42292;49.048;8.374;2022-07-22T06:06:56;12.65;;;8.30;;
40503;SDS011;42292;49.048;8.374;2022-07-22T06:09:24;13.73;;;8.10;;
40503;SDS011;42292;49.048;8.374;2022-07-22T06:11:50;9.05;;;7.10;;
40503;SDS011;42292;49.048;8.374;2022-07-22T06:14:15;8.73;;;7.72;;
40503;SDS011;42292;49.048;8.374;2022-07-22T06:16:43;9.52;;;7.45;;
40503;SDS011;42292;49.048;8.374;2022-07-22T06:19:09;9.70;;;6.90;;
40503;SDS011;42292;49.048;8.374;2022-07-22T06:21:35;7.73;;;6.90;;
40503;SDS011;42292;49.048;8.374;2022-07-22T06:24:04;7.45;;;6.68;;
40503;SDS011;42292;49.048;8.374;2022-07-22T06:26:29;10.02;;;6.70;;
40503;SDS011;42292;49.048;8.374;2022-07-22T06:28:55;7.90;;;6.67;;
40503;SDS011;42292;49.048;8.374;2022-07-22T06:31:21;9.83;;;6.53;;
40503;SDS011;42292;49.048;8.374;2022-07-22T06:33:46;7.17;;;6.03;;
40503;SDS011;42292;49.048;8.374;2022-07-22T06:36:14;7.60;;;6.40;;
40503;SDS011;42292;49.048;8.374;2022-07-22T06:38:42;7.70;;;6.43;;
40503;SDS011;42292;49.048;8.374;2022-07-22T06:41:10;9.20;;;6.90;;
40503;SDS011;42292;49.048;8.374;2022-07-22T06:43:38;8.90;;;6.90;;
40503;SDS011;42292;49.048;8.374;2022-07-22T06:46:04;8.15;;;6.10;;
40503;SDS011;42292;49.048;8.374;2022-07-22T06:48:30;7.87;;;6.07;;
40503;SDS011;42292;49.048;8.374;2022-07-22T06:50:56;8.07;;;5.80;;
40503;SDS011;42292;49.048;8.374;2022-07-22T06:53:22;7.40;;;5.75;;
40503;SDS011;42292;49.048;8.374;2022-07-22T06:55:50;7.75;;;6.38;;
40503;SDS011;42292;49.048;8.374;2022-07-22T06:58:15;7.57;;;6.10;;
40503;SDS011;42292;49.048;8.374;2022-07-22T07:00:41;9.07;;;6.03;;
40503;SDS011;42292;49.048;8.374;2022-07-22T07:03:09;8.45;;;6.30;;
40503;SDS011;42292;49.048;8.374;2022-07-22T07:05:37;7.85;;;6.00;;
40503;SDS011;42292;49.048;8.374;2022-07-22T07:08:03;7.00;;;5.77;;
40503;SDS011;42292;49.048;8.374;2022-07-22T07:10:28;6.90;;;6.20;;
40503;SDS011;42292;49.048;8.374;2022-07-22T07:12:55;7.20;;;5.67;;
40503;SDS011;42292;49.048;8.374;2022-07-22T07:15:22;7.38;;;6.28;;
40503;SDS011;42292;49.048;8.374;2022-07-22T07:17:47;7.70;;;6.43;;
40503;SDS011;42292;49.048;8.374;2022-07-22T07:20:13;7.13;;;6.43;;
40503;SDS011;42292;49.048;8.374;2022-07-22T07:22:39;8.30;;;6.15;;
40503;SDS011;42292;49.048;8.374;2022-07-22T07:25:07;8.10;;;6.88;;
40503;SDS011;42292;49.048;8.374;2022-07-22T07:27:36;8.55;;;7.10;;
40503;SDS011;42292;49.048;8.374;2022-07-22T07:30:04;8.80;;;7.07;;
40503;SDS011;42292;49.048;8.374;2022-07-22T07:32:36;8.85;;;7.32;;
40503;SDS011;42292;49.048;8.374;2022-07-22T07:35:03;7.78;;;7.00;;
40503;SDS011;42292;49.048;8.374;2022-07-22T07:37:30;9.05;;;6.85;;
40503;SDS011;42292;49.048;8.374;2022-07-22T07:39:58;7.72;;;6.60;;
40503;SDS011;42292;49.048;8.374;2022-07-22T07:42:24;8.47;;;7.00;;
40503;SDS011;42292;49.048;8.374;2022-07-22T07:44:52;7.60;;;6.55;;
40503;SDS011;42292;49.048;8.374;2022-07-22T07:47:18;7.68;;;6.68;;
40503;SDS011;42292;49.048;8.374;2022-07-22T07:49:47;8.07;;;6.45;;
40503;SDS011;42292;49.048;8.374;2022-07-22T07:52:14;9.25;;;6.88;;
40503;SDS011;42292;49.048;8.374;2022-07-22T07:54:45;9.27;;;7.63;;
40503;SDS011;42292;49.048;8.374;2022-07-22T07:57:11;9.35;;;7.07;;
40503;SDS011;42292;49.048;8.374;2022-07-22T07:59:37;9.57;;;7.15;;
40503;SDS011;42292;49.048;8.374;2022-07-22T08:02:06;9.05;;;7.30;;
40503;SDS011;42292;49.048;8.374;2022-07-22T08:04:34;8.27;;;6.90;;
40503;SDS011;42292;49.048;8.374;2022-07-22T08:07:01;8.45;;;7.05;;
40503;SDS011;42292;49.048;8.374;2022-07-22T08:09:29;8.52;;;7.15;;
40503;SDS011;42292;49.048;8.374;2022-07-22T08:11:55;7.68;;;6.90;;
40503;SDS011;42292;49.048;8.374;2022-07-22T08:14:21;8.50;;;7.07;;
40503;SDS011;42292;49.048;8.374;2022-07-22T08:16:47;9.10;;;7.88;;
40503;SDS011;42292;49.048;8.374;2022-07-22T08:19:13;10.13;;;7.33;;
40503;SDS011;42292;49.048;8.374;2022-07-22T08:21:41;8.38;;;7.55;;
40503;SDS011;42292;49.048;8.374;2022-07-22T08:24:10;8.50;;;7.60;;
40503;SDS011;42292;49.048;8.374;2022-07-22T08:26:36;10.77;;;7.25;;
40503;SDS011;42292;49.048;8.374;2022-07-22T08:29:02;8.23;;;7.45;;
40503;SDS011;42292;49.048;8.374;2022-07-22T08:31:29;8.30;;;7.50;;
40503;SDS011;42292;49.048;8.374;2022-07-22T08:33:57;8.55;;;7.10;;
40503;SDS011;42292;49.048;8.374;2022-07-22T08:36:24;8.80;;;7.88;;
40503;SDS011;42292;49.048;8.374;2022-07-22T08:38:49;9.35;;;7.97;;
40503;SDS011;42292;49.048;8.374;2022-07-22T08:41:17;9.43;;;7.70;;
40503;SDS011;42292;49.048;8.374;2022-07-22T08:43:45;7.72;;;7.03;;
40503;SDS011;42292;49.048;8.374;2022-07-22T08:46:14;11.07;;;7.72;;
40503;SDS011;42292;49.048;8.374;2022-07-22T08:48:40;8.15;;;7.35;;
40503;SDS011;42292;49.048;8.374;2022-07-22T08:51:06;8.20;;;7.40;;
40503;SDS011;42292;49.048;8.374;2022-07-22T08:53:32;8.00;;;6.93;;
40503;SDS011;42292;49.048;8.374;2022-07-22T08:56:00;8.23;;;7.40;;
40503;SDS011;42292;49.048;8.374;2022-07-22T08:58:26;8.77;;;7.88;;
40503;SDS011;42292;49.048;8.374;2022-07-22T09:01:12;8.30;;;7.50;;
40503;SDS011;42292;49.048;8.374;2022-07-22T09:03:47;8.50;;;7.60;;
40503;SDS011;42292;49.048;8.374;2022-07-22T09:06:18;8.38;;;7.50;;
40503;SDS011;42292;49.048;8.374;2022-07-22T09:08:54;8.10;;;7.30;;
40503;SDS011;42292;49.048;8.374;2022-07-22T09:11:24;8.18;;;7.18;;
40503;SDS011;42292;49.048;8.374;2022-07-22T09:13:52;9.80;;;7.57;;
40503;SDS011;42292;49.048;8.374;2022-07-22T09:19:13;8.25;;;7.45;;
40503;SDS011;42292;49.048;8.374;2022-07-22T09:21:43;8.15;;;6.68;;
40503;SDS011;42292;49.048;8.374;2022-07-22T09:24:35;8.93;;;7.15;;
40503;SDS011;42292;49.048;8.374;2022-07-22T09:27:03;8.85;;;7.15;;
40503;SDS011;42292;49.048;8.374;2022-07-22T09:29:32;8.75;;;7.72;;
40503;SDS011;42292;49.048;8.374;2022-07-22T09:31:58;8.60;;;7.63;;
40503;SDS011;42292;49.048;8.374;2022-07-22T09:34:27;8.10;;;6.73;;
40503;SDS011;42292;49.048;8.374;2022-07-22T09:36:55;9.00;;;6.80;;
40503;SDS011;42292;49.048;8.374;2022-07-22T09:39:28;8.40;;;6.60;;
40503;SDS011;42292;49.048;8.374;2022-07-22T09:41:58;8.65;;;6.78;;
40503;SDS011;42292;49.048;8.374;2022-07-22T09:44:31;7.43;;;6.60;;
40503;SDS011;42292;49.048;8.374;2022-07-22T09:46:59;8.93;;;6.40;;
40503;SDS011;42292;49.048;8.374;2022-07-22T09:49:35;8.30;;;6.40;;
40503;SDS011;42292;49.048;8.374;2022-07-22T09:52:05;8.03;;;6.80;;
40503;SDS011;42292;49.048;8.374;2022-07-22T09:54:33;7.45;;;6.63;;
40503;SDS011;42292;49.048;8.374;2022-07-22T09:56:59;8.38;;;6.85;;
40503;SDS011;42292;49.048;8.374;2022-07-22T09:59:30;8.60;;;6.55;;
40503;SDS011;42292;49.048;8.374;2022-07-22T10:01:56;8.90;;;7.10;;
40503;SDS011;42292;49.048;8.374;2022-07-22T10:04:25;7.60;;;6.43;;
40503;SDS011;42292;49.048;8.374;2022-07-22T10:06:55;7.63;;;6.60;;
40503;SDS011;42292;49.048;8.374;2022-07-22T10:09:24;6.78;;;6.10;;
40503;SDS011;42292;49.048;8.374;2022-07-22T10:11:53;7.18;;;6.47;;
40503;SDS011;42292;49.048;8.374;2022-07-22T10:14:19;8.00;;;6.50;;
40503;SDS011;42292;49.048;8.374;2022-07-22T10:16:46;7.22;;;6.53;;
40503;SDS011;42292;49.048;8.374;2022-07-22T10:19:12;7.10;;;6.30;;
40503;SDS011;42292;49.048;8.374;2022-07-22T10:21:41;8.95;;;6.43;;
40503;SDS011;42292;49.048;8.374;2022-07-22T10:24:12;7.17;;;6.37;;
40503;SDS011;42292;49.048;8.374;2022-07-22T10:26:55;7.78;;;6.03;;
40503;SDS011;42292;49.048;8.374;2022-07-22T10:34:55;7.82;;;7.07;;
40503;SDS011;42292;49.048;8.374;2022-07-22T10:45:25;8.43;;;6.38;;
40503;SDS011;42292;49.048;8.374;2022-07-22T10:53:21;6.68;;;6.05;;
40503;SDS011;42292;49.048;8.374;2022-07-22T11:01:03;8.23;;;6.20;;
40503;SDS011;42292;49.048;8.374;2022-07-22T11:03:31;7.00;;;6.20;;
40503;SDS011;42292;49.048;8.374;2022-07-22T11:08:46;6.40;;;5.80;;
40503;SDS011;42292;49.048;8.374;2022-07-22T11:11:23;7.43;;;6.03;;
40503;SDS011;42292;49.048;8.374;2022-07-22T11:14:02;9.82;;;6.50;;
40503;SDS011;42292;49.048;8.374;2022-07-22T11:16:28;6.40;;;5.80;;
40503;SDS011;42292;49.048;8.374;2022-07-22T11:21:23;7.72;;;6.03;;
40503;SDS011;42292;49.048;8.374;2022-07-22T11:23:52;7.78;;;6.13;;
40503;SDS011;42292;49.048;8.374;2022-07-22T11:26:23;7.10;;;5.70;;
40503;SDS011;42292;49.048;8.374;2022-07-22T11:28:51;7.30;;;5.70;;
40503;SDS011;42292;49.048;8.374;2022-07-22T11:31:17;8.48;;;5.70;;
40503;SDS011;42292;49.048;8.374;2022-07-22T11:33:44;7.78;;;6.03;;
40503;SDS011;42292;49.048;8.374;2022-07-22T11:36:11;7.07;;;5.93;;
40503;SDS011;42292;49.048;8.374;2022-07-22T11:38:44;6.57;;;5.90;;
40503;SDS011;42292;49.048;8.374;2022-07-22T11:41:19;7.32;;;5.88;;
40503;SDS011;42292;49.048;8.374;2022-07-22T11:43:47;8.88;;;5.80;;
40503;SDS011;42292;49.048;8.374;2022-07-22T11:46:15;6.28;;;5.63;;
40503;SDS011;42292;49.048;8.374;2022-07-22T11:48:42;6.53;;;5.82;;
40503;SDS011;42292;49.048;8.374;2022-07-22T11:51:10;6.80;;;6.00;;
40503;SDS011;42292;49.048;8.374;2022-07-22T11:53:37;6.43;;;5.85;;
40503;SDS011;42292;49.048;8.374;2022-07-22T11:56:09;7.50;;;6.05;;
40503;SDS011;42292;49.048;8.374;2022-07-22T11:58:44;8.50;;;6.13;;
40503;SDS011;42292;49.048;8.374;2022-07-22T12:01:13;7.32;;;6.55;;
40503;SDS011;42292;49.048;8.374;2022-07-22T12:03:45;6.60;;;5.90;;
40503;SDS011;42292;49.048;8.374;2022-07-22T12:06:13;7.07;;;6.15;;
40503;SDS011;42292;49.048;8.374;2022-07-22T12:08:43;6.55;;;5.85;;
40503;SDS011;42292;49.048;8.374;2022-07-22T12:11:16;7.10;;;6.50;;
40503;SDS011;42292;49.048;8.374;2022-07-22T12:13:43;7.70;;;6.03;;
40503;SDS011;42292;49.048;8.374;2022-07-22T12:16:18;7.20;;;6.28;;
40503;SDS011;42292;49.048;8.374;2022-07-22T12:18:49;6.55;;;5.90;;
40503;SDS011;42292;49.048;8.374;2022-07-22T12:21:25;6.93;;;6.07;;
40503;SDS011;42292;49.048;8.374;2022-07-22T12:23:53;6.45;;;5.70;;
40503;SDS011;42292;49.048;8.374;2022-07-22T12:29:21;7.40;;;6.00;;
40503;SDS011;42292;49.048;8.374;2022-07-22T12:31:55;6.60;;;5.97;;
40503;SDS011;42292;49.048;8.374;2022-07-22T12:36:57;6.85;;;5.50;;
40503;SDS011;42292;49.048;8.374;2022-07-22T12:39:28;6.25;;;5.35;;
40503;SDS011;42292;49.048;8.374;2022-07-22T12:41:55;6.63;;;5.82;;
40503;SDS011;42292;49.048;8.374;2022-07-22T12:44:21;6.28;;;5.40;;
40503;SDS011;42292;49.048;8.374;2022-07-22T12:46:50;6.63;;;5.82;;
40503;SDS011;42292;49.048;8.374;2022-07-22T12:49:18;6.25;;;5.65;;
40503;SDS011;42292;49.048;8.374;2022-07-22T12:54:37;7.03;;;5.43;;
40503;SDS011;42292;49.048;8.374;2022-07-22T12:57:04;7.18;;;6.30;;
40503;SDS011;42292;49.048;8.374;2022-07-22T12:59:31;7.47;;;5.75;;
40503;SDS011;42292;49.048;8.374;2022-07-22T13:01:57;7.15;;;5.75;;
40503;SDS011;42292;49.048;8.374;2022-07-22T13:04:23;6.05;;;5.40;;
40503;SDS011;42292;49.048;8.374;2022-07-22T13:06:53;5.77;;;5.23;;
40503;SDS011;42292;49.048;8.374;2022-07-22T13:09:21;5.90;;;5.30;;
40503;SDS011;42292;49.048;8.374;2022-07-22T13:11:47;6.47;;;5.43;;
40503;SDS011;42292;49.048;8.374;2022-07-22T13:14:13;6.57;;;5.38;;
40503;SDS011;42292;49.048;8.374;2022-07-22T13:16:44;6.07;;;5.40;;
40503;SDS011;42292;49.048;8.374;2022-07-22T13:19:12;6.28;;;5.35;;
40503;SDS011;42292;49.048;8.374;2022-07-22T13:21:37;7.35;;;5.65;;
40503;SDS011;42292;49.048;8.374;2022-07-22T13:24:03;5.83;;;5.17;;
40503;SDS011;42292;49.048;8.374;2022-07-22T13:26:31;8.90;;;5.53;;
40503;SDS011;42292;49.048;8.374;2022-07-22T13:28:57;6.22;;;5.10;;
40503;SDS011;42292;49.048;8.374;2022-07-22T13:31:24;5.90;;;5.30;;
40503;SDS011;42292;49.048;8.374;2022-07-22T13:33:51;6.32;;;5.70;;
40503;SDS011;42292;49.048;8.374;2022-07-22T13:36:17;8.93;;;6.00;;
40503;SDS011;42292;49.048;8.374;2022-07-22T13:38:42;6.47;;;4.97;;
40503;SDS011;42292;49.048;8.374;2022-07-22T13:41:08;6.00;;;5.22;;
40503;SDS011;42292;49.048;8.374;2022-07-22T13:43:41;6.25;;;5.00;;
40503;SDS011;42292;49.048;8.374;2022-07-22T13:46:08;6.93;;;5.40;;
40503;SDS011;42292;49.048;8.374;2022-07-22T13:48:35;5.65;;;4.80;;
40503;SDS011;42292;49.048;8.374;2022-07-22T13:51:01;5.97;;;5.03;;
40503;SDS011;42292;49.048;8.374;2022-07-22T13:53:30;7.22;;;5.13;;
40503;SDS011;42292;49.048;8.374;2022-07-22T13:55:55;6.20;;;4.90;;
40503;SDS011;42292;49.048;8.374;2022-07-22T13:58:23;6.97;;;5.17;;
40503;SDS011;42292;49.048;8.374;2022-07-22T14:00:49;5.45;;;4.93;;
40503;SDS011;42292;49.048;8.374;2022-07-22T14:03:15;5.47;;;4.72;;
40503;SDS011;42292;49.048;8.374;2022-07-22T14:05:40;4.70;;;4.30;;
40503;SDS011;42292;49.048;8.374;2022-07-22T14:08:08;5.93;;;4.50;;
40503;SDS011;42292;49.048;8.374;2022-07-22T14:10:36;6.20;;;4.60;;
40503;SDS011;42292;49.048;8.374;2022-07-22T14:13:04;4.67;;;4.27;;
40503;SDS011;42292;49.048;8.374;2022-07-22T14:15:33;6.40;;;4.70;;
40503;SDS011;42292;49.048;8.374;2022-07-22T14:18:03;5.60;;;4.22;;
40503;SDS011;42292;49.048;8.374;2022-07-22T14:20:31;5.22;;;4.03;;
40503;SDS011;42292;49.048;8.374;2022-07-22T14:22:57;5.15;;;4.00;;
40503;SDS011;42292;49.048;8.374;2022-07-22T14:25:23;6.57;;;4.00;;
40503;SDS011;42292;49.048;8.374;2022-07-22T14:27:49;4.32;;;3.90;;
40503;SDS011;42292;49.048;8.374;2022-07-22T14:30:15;5.05;;;3.95;;
40503;SDS011;42292;49.048;8.374;2022-07-22T14:32:40;5.60;;;3.80;;
40503;SDS011;42292;49.048;8.374;2022-07-22T14:35:06;5.70;;;4.30;;
40503;SDS011;42292;49.048;8.374;2022-07-22T14:37:32;6.07;;;3.93;;
40503;SDS011;42292;49.048;8.374;2022-07-22T14:39:58;4.53;;;3.80;;
40503;SDS011;42292;49.048;8.374;2022-07-22T14:42:28;4.82;;;4.00;;
40503;SDS011;42292;49.048;8.374;2022-07-22T14:44:54;4.43;;;4.00;;
40503;SDS011;42292;49.048;8.374;2022-07-22T14:47:22;4.10;;;3.70;;
40503;SDS011;42292;49.048;8.374;2022-07-22T14:49:50;5.30;;;3.75;;
40503;SDS011;42292;49.048;8.374;2022-07-22T14:52:20;4.05;;;3.65;;
40503;SDS011;42292;49.048;8.374;2022-07-22T14:54:50;5.85;;;3.75;;
40503;SDS011;42292;49.048;8.374;2022-07-22T14:57:16;5.60;;;3.83;;
40503;SDS011;42292;49.048;8.374;2022-07-22T14:59:41;5.17;;;3.87;;
40503;SDS011;42292;49.048;8.374;2022-07-22T15:02:07;5.72;;;3.90;;
40503;SDS011;42292;49.048;8.374;2022-07-22T15:04:35;5.53;;;4.10;;
40503;SDS011;42292;49.048;8.374;2022-07-22T15:07:03;5.55;;;3.70;;
40503;SDS011;42292;49.048;8.374;2022-07-22T15:09:31;4.60;;;3.70;;
40503;SDS011;42292;49.048;8.374;2022-07-22T15:11:57;5.15;;;3.80;;
40503;SDS011;42292;49.048;8.374;2022-07-22T15:14:23;5.00;;;3.70;;
40503;SDS011;42292;49.048;8.374;2022-07-22T15:16:48;4.17;;;3.53;;
40503;SDS011;42292;49.048;8.374;2022-07-22T15:19:14;6.93;;;3.72;;
40503;SDS011;42292;49.048;8.374;2022-07-22T15:21:39;6.22;;;3.78;;